sensor_id;sensor_type;location;lat;lon;timestamp;P1;durP1;ratioP1;P2;durP2;ratioP2
6442;SDS011;3254;47.372;8.512;2022-10-17T00:01:43;8.20;;;7.27;;
6442;SDS011;3254;47.372;8.512;2022-10-17T00:04:08;21.50;;;7.57;;
6442;SDS011;3254;47.372;8.512;2022-10-17T00:06:34;9.87;;;6.07;;
6442;SDS011;3254;47.372;8.512;2022-10-17T00:08:59;12.87;;;6.10;;
6442;SDS011;3254;47.372;8.512;2022-10-17T00:11:25;8.23;;;6.43;;
6442;SDS011;3254;47.372;8.512;2022-10-17T00:13:53;6.57;;;5.83;;
6442;SDS011;3254;47.372;8.512;2022-10-17T00:16:26;6.90;;;5.50;;
6442;SDS011;3254;47.372;8.512;2022-10-17T00:18:54;9.33;;;5.77;;
6442;SDS011;3254;47.372;8.512;2022-10-17T00:21:21;8.90;;;5.07;;
6442;SDS011;3254;47.372;8.512;2022-10-17T00:23:47;7.20;;;5.40;;
6442;SDS011;3254;47.372;8.512;2022-10-17T00:26:13;10.70;;;6.90;;
6442;SDS011;3254;47.372;8.512;2022-10-17T00:28:40;24.93;;;6.63;;
6442;SDS011;3254;47.372;8.512;2022-10-17T00:31:06;9.30;;;5.80;;
6442;SDS011;3254;47.372;8.512;2022-10-17T00:33:32;6.10;;;5.60;;
6442;SDS011;3254;47.372;8.512;2022-10-17T00:36:06;8.97;;;5.40;;
6442;SDS011;3254;47.372;8.512;2022-10-17T00:38:47;9.70;;;6.10;;
6442;SDS011;3254;47.372;8.512;2022-10-17T00:41:15;5.17;;;4.87;;
6442;SDS011;3254;47.372;8.512;2022-10-17T00:46:24;15.23;;;5.90;;
6442;SDS011;3254;47.372;8.512;2022-10-17T00:48:52;8.17;;;5.33;;
6442;SDS011;3254;47.372;8.512;2022-10-17T00:51:21;6.23;;;5.67;;
6442;SDS011;3254;47.372;8.512;2022-10-17T00:53:59;16.83;;;6.03;;
6442;SDS011;3254;47.372;8.512;2022-10-17T00:56:26;10.83;;;6.30;;
6442;SDS011;3254;47.372;8.512;2022-10-17T00:58:53;10.17;;;6.47;;
6442;SDS011;3254;47.372;8.512;2022-10-17T01:01:19;12.00;;;6.07;;
6442;SDS011;3254;47.372;8.512;2022-10-17T01:03:44;12.50;;;6.73;;
6442;SDS011;3254;47.372;8.512;2022-10-17T01:06:10;7.57;;;6.63;;
6442;SDS011;3254;47.372;8.512;2022-10-17T01:08:36;11.50;;;6.40;;
6442;SDS011;3254;47.372;8.512;2022-10-17T01:11:24;11.90;;;6.10;;
6442;SDS011;3254;47.372;8.512;2022-10-17T01:14:03;8.83;;;5.70;;
6442;SDS011;3254;47.372;8.512;2022-10-17T01:22:34;8.10;;;6.30;;
6442;SDS011;3254;47.372;8.512;2022-10-17T01:25:33;6.23;;;5.70;;
6442;SDS011;3254;47.372;8.512;2022-10-17T01:31:13;13.90;;;8.60;;
6442;SDS011;3254;47.372;8.512;2022-10-17T01:33:52;18.13;;;7.67;;
6442;SDS011;3254;47.372;8.512;2022-10-17T01:40:41;17.00;;;7.37;;
6442;SDS011;3254;47.372;8.512;2022-10-17T01:45:46;6.43;;;5.93;;
6442;SDS011;3254;47.372;8.512;2022-10-17T01:48:24;15.37;;;6.70;;
6442;SDS011;3254;47.372;8.512;2022-10-17T01:50:56;7.07;;;6.37;;
6442;SDS011;3254;47.372;8.512;2022-10-17T01:53:36;7.90;;;6.17;;
6442;SDS011;3254;47.372;8.512;2022-10-17T01:56:07;6.97;;;6.27;;
6442;SDS011;3254;47.372;8.512;2022-10-17T01:58:46;10.33;;;6.77;;
6442;SDS011;3254;47.372;8.512;2022-10-17T02:01:16;18.03;;;7.50;;
6442;SDS011;3254;47.372;8.512;2022-10-17T02:03:43;8.47;;;7.73;;
6442;SDS011;3254;47.372;8.512;2022-10-17T02:06:10;7.47;;;6.63;;
6442;SDS011;3254;47.372;8.512;2022-10-17T02:08:41;12.00;;;7.73;;
6442;SDS011;3254;47.372;8.512;2022-10-17T02:11:10;19.03;;;7.47;;
6442;SDS011;3254;47.372;8.512;2022-10-17T02:13:41;8.17;;;7.33;;
6442;SDS011;3254;47.372;8.512;2022-10-17T02:16:11;7.17;;;6.57;;
6442;SDS011;3254;47.372;8.512;2022-10-17T02:18:46;7.97;;;6.60;;
6442;SDS011;3254;47.372;8.512;2022-10-17T02:21:20;10.17;;;6.43;;
6442;SDS011;3254;47.372;8.512;2022-10-17T02:24:46;7.17;;;5.90;;
6442;SDS011;3254;47.372;8.512;2022-10-17T02:26:51;7.97;;;6.83;;
6442;SDS011;3254;47.372;8.512;2022-10-17T02:29:25;10.73;;;7.10;;
6442;SDS011;3254;47.372;8.512;2022-10-17T02:31:59;12.83;;;6.63;;
6442;SDS011;3254;47.372;8.512;2022-10-17T02:34:49;11.30;;;6.67;;
6442;SDS011;3254;47.372;8.512;2022-10-17T02:37:19;10.30;;;6.90;;
6442;SDS011;3254;47.372;8.512;2022-10-17T02:39:50;16.70;;;10.03;;
6442;SDS011;3254;47.372;8.512;2022-10-17T02:42:18;18.33;;;12.43;;
6442;SDS011;3254;47.372;8.512;2022-10-17T02:44:45;19.97;;;10.30;;
6442;SDS011;3254;47.372;8.512;2022-10-17T02:49:50;14.83;;;8.10;;
6442;SDS011;3254;47.372;8.512;2022-10-17T02:55:11;11.23;;;8.70;;
6442;SDS011;3254;47.372;8.512;2022-10-17T02:58:10;14.83;;;8.63;;
6442;SDS011;3254;47.372;8.512;2022-10-17T03:00:42;12.10;;;9.03;;
6442;SDS011;3254;47.372;8.512;2022-10-17T03:03:26;14.70;;;9.73;;
6442;SDS011;3254;47.372;8.512;2022-10-17T03:05:53;17.70;;;10.50;;
6442;SDS011;3254;47.372;8.512;2022-10-17T03:08:19;15.60;;;9.57;;
6442;SDS011;3254;47.372;8.512;2022-10-17T03:10:46;22.73;;;11.87;;
6442;SDS011;3254;47.372;8.512;2022-10-17T03:13:11;18.53;;;10.90;;
6442;SDS011;3254;47.372;8.512;2022-10-17T03:15:37;10.43;;;8.37;;
6442;SDS011;3254;47.372;8.512;2022-10-17T03:18:03;9.87;;;8.47;;
6442;SDS011;3254;47.372;8.512;2022-10-17T03:20:29;13.83;;;9.30;;
6442;SDS011;3254;47.372;8.512;2022-10-17T03:22:55;11.10;;;7.50;;
6442;SDS011;3254;47.372;8.512;2022-10-17T03:25:20;14.40;;;8.43;;
6442;SDS011;3254;47.372;8.512;2022-10-17T03:27:46;9.47;;;7.60;;
6442;SDS011;3254;47.372;8.512;2022-10-17T03:30:12;18.73;;;10.07;;
6442;SDS011;3254;47.372;8.512;2022-10-17T03:32:37;19.93;;;11.37;;
6442;SDS011;3254;47.372;8.512;2022-10-17T03:35:03;19.83;;;11.60;;
6442;SDS011;3254;47.372;8.512;2022-10-17T03:37:29;13.53;;;10.60;;
6442;SDS011;3254;47.372;8.512;2022-10-17T03:39:55;11.63;;;10.20;;
6442;SDS011;3254;47.372;8.512;2022-10-17T03:42:20;15.93;;;10.00;;
6442;SDS011;3254;47.372;8.512;2022-10-17T03:44:46;13.30;;;8.57;;
6442;SDS011;3254;47.372;8.512;2022-10-17T03:47:11;23.40;;;8.93;;
6442;SDS011;3254;47.372;8.512;2022-10-17T03:49:37;9.23;;;7.40;;
6442;SDS011;3254;47.372;8.512;2022-10-17T03:52:04;9.07;;;8.07;;
6442;SDS011;3254;47.372;8.512;2022-10-17T03:54:30;13.43;;;7.50;;
6442;SDS011;3254;47.372;8.512;2022-10-17T03:56:55;8.30;;;6.77;;
6442;SDS011;3254;47.372;8.512;2022-10-17T03:59:21;14.80;;;8.33;;
6442;SDS011;3254;47.372;8.512;2022-10-17T04:01:47;14.83;;;7.37;;
6442;SDS011;3254;47.372;8.512;2022-10-17T04:04:12;10.37;;;7.97;;
6442;SDS011;3254;47.372;8.512;2022-10-17T04:06:38;10.27;;;7.77;;
6442;SDS011;3254;47.372;8.512;2022-10-17T04:09:04;9.50;;;7.30;;
6442;SDS011;3254;47.372;8.512;2022-10-17T04:11:31;12.50;;;7.83;;
6442;SDS011;3254;47.372;8.512;2022-10-17T04:13:57;13.90;;;8.43;;
6442;SDS011;3254;47.372;8.512;2022-10-17T04:16:25;13.33;;;8.07;;
6442;SDS011;3254;47.372;8.512;2022-10-17T04:18:56;11.30;;;6.90;;
6442;SDS011;3254;47.372;8.512;2022-10-17T04:21:24;8.30;;;7.20;;
6442;SDS011;3254;47.372;8.512;2022-10-17T04:23:54;12.93;;;8.43;;
6442;SDS011;3254;47.372;8.512;2022-10-17T04:26:21;14.67;;;9.90;;
6442;SDS011;3254;47.372;8.512;2022-10-17T04:28:46;13.30;;;10.60;;
6442;SDS011;3254;47.372;8.512;2022-10-17T04:31:12;12.73;;;10.17;;
6442;SDS011;3254;47.372;8.512;2022-10-17T04:33:38;24.20;;;17.00;;
6442;SDS011;3254;47.372;8.512;2022-10-17T04:36:05;18.80;;;13.40;;
6442;SDS011;3254;47.372;8.512;2022-10-17T04:38:35;19.93;;;12.23;;
6442;SDS011;3254;47.372;8.512;2022-10-17T04:41:01;13.00;;;10.67;;
6442;SDS011;3254;47.372;8.512;2022-10-17T04:43:29;13.20;;;9.17;;
6442;SDS011;3254;47.372;8.512;2022-10-17T04:45:56;10.60;;;9.60;;
6442;SDS011;3254;47.372;8.512;2022-10-17T04:48:22;15.50;;;9.80;;
6442;SDS011;3254;47.372;8.512;2022-10-17T04:50:52;28.03;;;8.60;;
6442;SDS011;3254;47.372;8.512;2022-10-17T04:53:22;22.27;;;10.23;;
6442;SDS011;3254;47.372;8.512;2022-10-17T04:55:48;11.90;;;9.63;;
6442;SDS011;3254;47.372;8.512;2022-10-17T04:58:15;15.23;;;9.43;;
6442;SDS011;3254;47.372;8.512;2022-10-17T05:00:41;12.47;;;9.30;;
6442;SDS011;3254;47.372;8.512;2022-10-17T05:03:07;9.70;;;7.80;;
6442;SDS011;3254;47.372;8.512;2022-10-17T05:05:35;11.20;;;8.20;;
6442;SDS011;3254;47.372;8.512;2022-10-17T05:08:02;27.23;;;8.93;;
6442;SDS011;3254;47.372;8.512;2022-10-17T05:10:29;14.60;;;7.80;;
6442;SDS011;3254;47.372;8.512;2022-10-17T05:12:54;17.90;;;7.73;;
6442;SDS011;3254;47.372;8.512;2022-10-17T05:15:20;11.23;;;10.03;;
6442;SDS011;3254;47.372;8.512;2022-10-17T05:17:45;17.10;;;8.47;;
6442;SDS011;3254;47.372;8.512;2022-10-17T05:20:11;23.60;;;8.83;;
6442;SDS011;3254;47.372;8.512;2022-10-17T05:22:37;15.13;;;8.97;;
6442;SDS011;3254;47.372;8.512;2022-10-17T05:25:03;14.17;;;7.70;;
6442;SDS011;3254;47.372;8.512;2022-10-17T05:27:29;13.23;;;8.47;;
6442;SDS011;3254;47.372;8.512;2022-10-17T05:29:55;19.70;;;9.87;;
6442;SDS011;3254;47.372;8.512;2022-10-17T05:32:20;19.87;;;8.73;;
6442;SDS011;3254;47.372;8.512;2022-10-17T05:34:46;13.17;;;7.83;;
6442;SDS011;3254;47.372;8.512;2022-10-17T05:37:11;17.43;;;9.43;;
6442;SDS011;3254;47.372;8.512;2022-10-17T05:39:37;16.53;;;8.10;;
6442;SDS011;3254;47.372;8.512;2022-10-17T05:42:02;14.63;;;9.43;;
6442;SDS011;3254;47.372;8.512;2022-10-17T05:44:28;14.30;;;8.73;;
6442;SDS011;3254;47.372;8.512;2022-10-17T05:46:54;15.27;;;8.73;;
6442;SDS011;3254;47.372;8.512;2022-10-17T05:49:19;9.73;;;8.63;;
6442;SDS011;3254;47.372;8.512;2022-10-17T05:51:45;12.27;;;8.90;;
6442;SDS011;3254;47.372;8.512;2022-10-17T05:54:10;16.97;;;9.70;;
6442;SDS011;3254;47.372;8.512;2022-10-17T05:56:36;20.97;;;11.00;;
6442;SDS011;3254;47.372;8.512;2022-10-17T05:59:02;18.33;;;11.03;;
6442;SDS011;3254;47.372;8.512;2022-10-17T06:01:28;15.00;;;10.10;;
6442;SDS011;3254;47.372;8.512;2022-10-17T06:03:54;16.10;;;9.30;;
6442;SDS011;3254;47.372;8.512;2022-10-17T06:06:19;19.57;;;10.40;;
6442;SDS011;3254;47.372;8.512;2022-10-17T06:08:46;21.70;;;11.30;;
6442;SDS011;3254;47.372;8.512;2022-10-17T06:11:12;23.87;;;11.07;;
6442;SDS011;3254;47.372;8.512;2022-10-17T06:13:38;19.50;;;10.93;;
6442;SDS011;3254;47.372;8.512;2022-10-17T06:16:04;16.73;;;11.10;;
6442;SDS011;3254;47.372;8.512;2022-10-17T06:18:30;22.13;;;11.70;;
6442;SDS011;3254;47.372;8.512;2022-10-17T06:21:06;17.37;;;12.47;;
6442;SDS011;3254;47.372;8.512;2022-10-17T06:23:34;29.50;;;11.87;;
6442;SDS011;3254;47.372;8.512;2022-10-17T06:26:00;15.47;;;11.60;;
6442;SDS011;3254;47.372;8.512;2022-10-17T06:28:27;20.40;;;11.10;;
6442;SDS011;3254;47.372;8.512;2022-10-17T06:30:53;26.00;;;10.70;;
6442;SDS011;3254;47.372;8.512;2022-10-17T06:33:18;20.23;;;10.97;;
6442;SDS011;3254;47.372;8.512;2022-10-17T06:35:52;25.93;;;11.33;;
6442;SDS011;3254;47.372;8.512;2022-10-17T06:38:18;19.30;;;10.53;;
6442;SDS011;3254;47.372;8.512;2022-10-17T06:40:44;21.00;;;11.67;;
6442;SDS011;3254;47.372;8.512;2022-10-17T06:43:10;25.90;;;11.77;;
6442;SDS011;3254;47.372;8.512;2022-10-17T06:45:37;23.97;;;10.53;;
6442;SDS011;3254;47.372;8.512;2022-10-17T06:48:03;17.07;;;11.40;;
6442;SDS011;3254;47.372;8.512;2022-10-17T06:50:29;22.50;;;10.77;;
6442;SDS011;3254;47.372;8.512;2022-10-17T06:52:55;25.77;;;13.50;;
6442;SDS011;3254;47.372;8.512;2022-10-17T06:55:20;24.93;;;12.33;;
6442;SDS011;3254;47.372;8.512;2022-10-17T06:57:46;24.50;;;12.40;;
6442;SDS011;3254;47.372;8.512;2022-10-17T07:00:11;16.40;;;12.10;;
6442;SDS011;3254;47.372;8.512;2022-10-17T07:02:37;22.23;;;11.47;;
6442;SDS011;3254;47.372;8.512;2022-10-17T07:05:03;19.97;;;11.70;;
6442;SDS011;3254;47.372;8.512;2022-10-17T07:07:30;19.83;;;11.20;;
6442;SDS011;3254;47.372;8.512;2022-10-17T07:09:56;17.63;;;9.13;;
6442;SDS011;3254;47.372;8.512;2022-10-17T07:12:22;13.90;;;10.17;;
6442;SDS011;3254;47.372;8.512;2022-10-17T07:14:48;19.63;;;9.93;;
6442;SDS011;3254;47.372;8.512;2022-10-17T07:17:15;22.33;;;10.07;;
6442;SDS011;3254;47.372;8.512;2022-10-17T07:19:41;23.57;;;11.00;;
6442;SDS011;3254;47.372;8.512;2022-10-17T07:22:07;13.63;;;10.60;;
6442;SDS011;3254;47.372;8.512;2022-10-17T07:24:33;19.37;;;10.90;;
6442;SDS011;3254;47.372;8.512;2022-10-17T07:26:59;15.17;;;10.13;;
6442;SDS011;3254;47.372;8.512;2022-10-17T07:29:26;21.27;;;10.47;;
6442;SDS011;3254;47.372;8.512;2022-10-17T07:31:52;14.70;;;9.57;;
6442;SDS011;3254;47.372;8.512;2022-10-17T07:34:18;16.97;;;10.63;;
6442;SDS011;3254;47.372;8.512;2022-10-17T07:36:44;14.97;;;11.00;;
6442;SDS011;3254;47.372;8.512;2022-10-17T07:39:10;8.93;;;8.00;;
6442;SDS011;3254;47.372;8.512;2022-10-17T07:41:36;13.80;;;7.30;;
6442;SDS011;3254;47.372;8.512;2022-10-17T07:44:01;17.70;;;6.60;;
6442;SDS011;3254;47.372;8.512;2022-10-17T07:46:27;14.80;;;6.60;;
6442;SDS011;3254;47.372;8.512;2022-10-17T07:48:53;11.80;;;8.77;;
6442;SDS011;3254;47.372;8.512;2022-10-17T07:51:18;14.10;;;5.80;;
6442;SDS011;3254;47.372;8.512;2022-10-17T07:53:46;24.17;;;6.17;;
6442;SDS011;3254;47.372;8.512;2022-10-17T07:56:11;11.60;;;6.97;;
6442;SDS011;3254;47.372;8.512;2022-10-17T07:58:37;9.13;;;6.90;;
6442;SDS011;3254;47.372;8.512;2022-10-17T08:01:04;7.90;;;6.80;;
6442;SDS011;3254;47.372;8.512;2022-10-17T08:03:35;8.70;;;6.90;;
6442;SDS011;3254;47.372;8.512;2022-10-17T08:06:01;6.43;;;5.93;;
6442;SDS011;3254;47.372;8.512;2022-10-17T08:08:27;12.57;;;6.93;;
6442;SDS011;3254;47.372;8.512;2022-10-17T08:10:54;12.60;;;7.30;;
6442;SDS011;3254;47.372;8.512;2022-10-17T08:13:20;12.37;;;6.80;;
6442;SDS011;3254;47.372;8.512;2022-10-17T08:15:47;12.93;;;7.93;;
6442;SDS011;3254;47.372;8.512;2022-10-17T08:18:13;12.70;;;8.03;;
6442;SDS011;3254;47.372;8.512;2022-10-17T08:20:40;18.43;;;8.17;;
6442;SDS011;3254;47.372;8.512;2022-10-17T08:23:06;11.10;;;7.30;;
6442;SDS011;3254;47.372;8.512;2022-10-17T08:25:32;12.13;;;7.43;;
6442;SDS011;3254;47.372;8.512;2022-10-17T08:27:57;11.00;;;6.30;;
6442;SDS011;3254;47.372;8.512;2022-10-17T08:30:23;7.17;;;6.50;;
6442;SDS011;3254;47.372;8.512;2022-10-17T08:32:49;13.73;;;6.93;;
6442;SDS011;3254;47.372;8.512;2022-10-17T08:35:15;7.23;;;6.37;;
6442;SDS011;3254;47.372;8.512;2022-10-17T08:37:40;7.13;;;6.60;;
6442;SDS011;3254;47.372;8.512;2022-10-17T08:40:06;10.57;;;6.97;;
6442;SDS011;3254;47.372;8.512;2022-10-17T08:48:08;11.10;;;7.03;;
6442;SDS011;3254;47.372;8.512;2022-10-17T08:53:28;6.27;;;5.67;;
6442;SDS011;3254;47.372;8.512;2022-10-17T08:58:47;8.67;;;5.53;;
6442;SDS011;3254;47.372;8.512;2022-10-17T09:04:02;5.47;;;4.97;;
6442;SDS011;3254;47.372;8.512;2022-10-17T09:09:58;11.63;;;4.40;;
6442;SDS011;3254;47.372;8.512;2022-10-17T09:18:26;18.03;;;4.57;;
6442;SDS011;3254;47.372;8.512;2022-10-17T09:21:00;11.63;;;4.40;;
6442;SDS011;3254;47.372;8.512;2022-10-17T09:23:38;7.17;;;4.30;;
6442;SDS011;3254;47.372;8.512;2022-10-17T09:26:09;5.13;;;3.90;;
6442;SDS011;3254;47.372;8.512;2022-10-17T09:28:37;5.33;;;3.70;;
6442;SDS011;3254;47.372;8.512;2022-10-17T09:31:12;7.77;;;4.03;;
6442;SDS011;3254;47.372;8.512;2022-10-17T09:33:46;4.90;;;3.90;;
6442;SDS011;3254;47.372;8.512;2022-10-17T09:38:52;4.80;;;4.27;;
6442;SDS011;3254;47.372;8.512;2022-10-17T09:41:20;5.07;;;4.57;;
6442;SDS011;3254;47.372;8.512;2022-10-17T09:43:48;9.13;;;4.40;;
6442;SDS011;3254;47.372;8.512;2022-10-17T09:46:29;7.83;;;4.07;;
6442;SDS011;3254;47.372;8.512;2022-10-17T09:49:11;7.87;;;5.30;;
6442;SDS011;3254;47.372;8.512;2022-10-17T09:51:39;14.90;;;5.30;;
6442;SDS011;3254;47.372;8.512;2022-10-17T09:54:18;19.23;;;4.90;;
6442;SDS011;3254;47.372;8.512;2022-10-17T09:59:29;10.03;;;4.50;;
6442;SDS011;3254;47.372;8.512;2022-10-17T10:04:59;5.90;;;4.00;;
6442;SDS011;3254;47.372;8.512;2022-10-17T10:07:28;13.37;;;3.93;;
6442;SDS011;3254;47.372;8.512;2022-10-17T10:09:56;3.00;;;2.80;;
6442;SDS011;3254;47.372;8.512;2022-10-17T10:12:24;8.23;;;3.37;;
6442;SDS011;3254;47.372;8.512;2022-10-17T10:14:54;2.83;;;2.67;;
6442;SDS011;3254;47.372;8.512;2022-10-17T10:17:39;3.07;;;2.87;;
6442;SDS011;3254;47.372;8.512;2022-10-17T10:23:06;4.87;;;2.40;;
6442;SDS011;3254;47.372;8.512;2022-10-17T10:25:37;2.73;;;2.53;;
6442;SDS011;3254;47.372;8.512;2022-10-17T10:28:33;5.80;;;2.30;;
6442;SDS011;3254;47.372;8.512;2022-10-17T10:31:06;4.67;;;2.40;;
6442;SDS011;3254;47.372;8.512;2022-10-17T10:33:34;4.23;;;2.63;;
6442;SDS011;3254;47.372;8.512;2022-10-17T10:36:05;4.00;;;2.90;;
6442;SDS011;3254;47.372;8.512;2022-10-17T10:38:32;3.40;;;2.93;;
6442;SDS011;3254;47.372;8.512;2022-10-17T10:41:02;7.20;;;3.60;;
6442;SDS011;3254;47.372;8.512;2022-10-17T10:43:33;7.30;;;3.50;;
6442;SDS011;3254;47.372;8.512;2022-10-17T10:46:05;5.60;;;3.57;;
6442;SDS011;3254;47.372;8.512;2022-10-17T10:48:52;6.70;;;3.00;;
6442;SDS011;3254;47.372;8.512;2022-10-17T10:54:13;7.30;;;3.40;;
6442;SDS011;3254;47.372;8.512;2022-10-17T10:56:48;3.83;;;2.90;;
6442;SDS011;3254;47.372;8.512;2022-10-17T10:59:19;2.80;;;2.60;;
6442;SDS011;3254;47.372;8.512;2022-10-17T11:01:53;7.63;;;2.53;;
6442;SDS011;3254;47.372;8.512;2022-10-17T11:04:26;7.60;;;2.80;;
6442;SDS011;3254;47.372;8.512;2022-10-17T11:07:09;4.87;;;2.40;;
6442;SDS011;3254;47.372;8.512;2022-10-17T11:12:26;2.20;;;2.10;;
6442;SDS011;3254;47.372;8.512;2022-10-17T11:20:17;6.93;;;2.23;;
6442;SDS011;3254;47.372;8.512;2022-10-17T11:22:45;2.77;;;2.50;;
6442;SDS011;3254;47.372;8.512;2022-10-17T11:25:32;3.07;;;2.50;;
6442;SDS011;3254;47.372;8.512;2022-10-17T11:28:00;3.70;;;2.40;;
6442;SDS011;3254;47.372;8.512;2022-10-17T11:30:27;6.90;;;2.27;;
6442;SDS011;3254;47.372;8.512;2022-10-17T11:33:02;6.30;;;2.37;;
6442;SDS011;3254;47.372;8.512;2022-10-17T11:35:32;2.63;;;2.30;;
6442;SDS011;3254;47.372;8.512;2022-10-17T11:40:58;2.90;;;2.70;;
6442;SDS011;3254;47.372;8.512;2022-10-17T11:43:28;4.90;;;2.30;;
6442;SDS011;3254;47.372;8.512;2022-10-17T11:51:40;6.30;;;2.50;;
6442;SDS011;3254;47.372;8.512;2022-10-17T11:54:41;5.60;;;2.50;;
6442;SDS011;3254;47.372;8.512;2022-10-17T12:15:57;3.00;;;2.80;;
6442;SDS011;3254;47.372;8.512;2022-10-17T12:18:42;2.60;;;2.40;;
6442;SDS011;3254;47.372;8.512;2022-10-17T12:21:08;6.70;;;2.57;;
6442;SDS011;3254;47.372;8.512;2022-10-17T12:23:34;2.67;;;2.47;;
6442;SDS011;3254;47.372;8.512;2022-10-17T12:26:03;5.20;;;2.40;;
6442;SDS011;3254;47.372;8.512;2022-10-17T12:28:44;3.00;;;2.33;;
6442;SDS011;3254;47.372;8.512;2022-10-17T12:38:49;14.37;;;3.30;;
6442;SDS011;3254;47.372;8.512;2022-10-17T12:47:37;6.90;;;2.43;;
6442;SDS011;3254;47.372;8.512;2022-10-17T12:52:54;4.60;;;2.40;;
6442;SDS011;3254;47.372;8.512;2022-10-17T13:02:52;6.03;;;2.17;;
6442;SDS011;3254;47.372;8.512;2022-10-17T13:05:25;6.80;;;2.90;;
6442;SDS011;3254;47.372;8.512;2022-10-17T13:08:04;8.10;;;2.40;;
6442;SDS011;3254;47.372;8.512;2022-10-17T13:10:37;4.33;;;2.80;;
6442;SDS011;3254;47.372;8.512;2022-10-17T13:13:10;2.50;;;2.17;;
6442;SDS011;3254;47.372;8.512;2022-10-17T13:15:37;2.90;;;2.10;;
6442;SDS011;3254;47.372;8.512;2022-10-17T13:18:03;9.17;;;2.03;;
6442;SDS011;3254;47.372;8.512;2022-10-17T13:20:29;4.03;;;1.80;;
6442;SDS011;3254;47.372;8.512;2022-10-17T13:22:56;3.63;;;2.17;;
6442;SDS011;3254;47.372;8.512;2022-10-17T13:25:22;5.93;;;2.43;;
6442;SDS011;3254;47.372;8.512;2022-10-17T13:27:49;2.60;;;1.97;;
6442;SDS011;3254;47.372;8.512;2022-10-17T13:30:31;8.73;;;1.87;;
6442;SDS011;3254;47.372;8.512;2022-10-17T13:32:59;4.70;;;1.80;;
6442;SDS011;3254;47.372;8.512;2022-10-17T13:35:27;3.77;;;2.57;;
6442;SDS011;3254;47.372;8.512;2022-10-17T13:37:59;3.00;;;2.20;;
6442;SDS011;3254;47.372;8.512;2022-10-17T13:40:28;3.70;;;1.93;;
6442;SDS011;3254;47.372;8.512;2022-10-17T13:42:55;2.67;;;2.57;;
6442;SDS011;3254;47.372;8.512;2022-10-17T13:45:33;2.57;;;2.43;;
6442;SDS011;3254;47.372;8.512;2022-10-17T13:48:05;6.87;;;2.50;;
6442;SDS011;3254;47.372;8.512;2022-10-17T13:50:41;2.27;;;2.17;;
6442;SDS011;3254;47.372;8.512;2022-10-17T13:53:19;3.87;;;1.90;;
6442;SDS011;3254;47.372;8.512;2022-10-17T13:55:54;6.93;;;2.50;;
6442;SDS011;3254;47.372;8.512;2022-10-17T13:58:38;14.43;;;3.00;;
6442;SDS011;3254;47.372;8.512;2022-10-17T14:01:06;11.03;;;2.40;;
6442;SDS011;3254;47.372;8.512;2022-10-17T14:03:33;7.47;;;2.53;;
6442;SDS011;3254;47.372;8.512;2022-10-17T14:08:55;8.53;;;2.63;;
6442;SDS011;3254;47.372;8.512;2022-10-17T14:13:57;3.97;;;2.60;;
6442;SDS011;3254;47.372;8.512;2022-10-17T14:16:24;2.60;;;2.40;;
6442;SDS011;3254;47.372;8.512;2022-10-17T14:18:51;9.90;;;2.60;;
6442;SDS011;3254;47.372;8.512;2022-10-17T14:21:19;5.80;;;2.50;;
6442;SDS011;3254;47.372;8.512;2022-10-17T14:23:46;6.60;;;2.10;;
6442;SDS011;3254;47.372;8.512;2022-10-17T14:26:13;5.00;;;2.07;;
6442;SDS011;3254;47.372;8.512;2022-10-17T14:28:40;7.33;;;2.27;;
6442;SDS011;3254;47.372;8.512;2022-10-17T14:31:12;2.20;;;2.10;;
6442;SDS011;3254;47.372;8.512;2022-10-17T14:33:49;3.20;;;2.40;;
6442;SDS011;3254;47.372;8.512;2022-10-17T14:36:18;3.57;;;2.47;;
6442;SDS011;3254;47.372;8.512;2022-10-17T14:38:53;3.90;;;2.40;;
6442;SDS011;3254;47.372;8.512;2022-10-17T14:41:30;9.03;;;2.30;;
6442;SDS011;3254;47.372;8.512;2022-10-17T14:43:59;2.43;;;1.83;;
6442;SDS011;3254;47.372;8.512;2022-10-17T14:46:28;8.70;;;2.10;;
6442;SDS011;3254;47.372;8.512;2022-10-17T14:48:56;12.97;;;2.77;;
6442;SDS011;3254;47.372;8.512;2022-10-17T14:51:27;2.87;;;2.50;;
6442;SDS011;3254;47.372;8.512;2022-10-17T14:56:48;6.83;;;2.50;;
6442;SDS011;3254;47.372;8.512;2022-10-17T14:59:15;2.60;;;2.40;;
6442;SDS011;3254;47.372;8.512;2022-10-17T15:01:46;2.47;;;2.20;;
6442;SDS011;3254;47.372;8.512;2022-10-17T15:04:13;4.20;;;2.70;;
6442;SDS011;3254;47.372;8.512;2022-10-17T15:06:39;4.13;;;2.53;;
6442;SDS011;3254;47.372;8.512;2022-10-17T15:09:05;2.60;;;2.40;;
6442;SDS011;3254;47.372;8.512;2022-10-17T15:11:30;3.17;;;2.77;;
6442;SDS011;3254;47.372;8.512;2022-10-17T15:13:56;2.77;;;2.30;;
6442;SDS011;3254;47.372;8.512;2022-10-17T15:18:49;3.80;;;2.10;;
6442;SDS011;3254;47.372;8.512;2022-10-17T15:21:15;3.50;;;2.23;;
6442;SDS011;3254;47.372;8.512;2022-10-17T15:23:43;11.23;;;2.03;;
6442;SDS011;3254;47.372;8.512;2022-10-17T15:26:24;4.17;;;2.40;;
6442;SDS011;3254;47.372;8.512;2022-10-17T15:28:53;2.50;;;2.30;;
6442;SDS011;3254;47.372;8.512;2022-10-17T15:31:20;3.10;;;2.80;;
6442;SDS011;3254;47.372;8.512;2022-10-17T15:33:47;7.70;;;2.63;;
6442;SDS011;3254;47.372;8.512;2022-10-17T15:36:24;2.87;;;2.67;;
6442;SDS011;3254;47.372;8.512;2022-10-17T15:39:06;3.13;;;2.70;;
6442;SDS011;3254;47.372;8.512;2022-10-17T15:41:33;3.03;;;2.60;;
6442;SDS011;3254;47.372;8.512;2022-10-17T15:43:59;8.47;;;3.50;;
6442;SDS011;3254;47.372;8.512;2022-10-17T15:46:26;6.77;;;3.20;;
6442;SDS011;3254;47.372;8.512;2022-10-17T15:48:53;7.80;;;4.17;;
6442;SDS011;3254;47.372;8.512;2022-10-17T15:51:20;10.43;;;3.20;;
6442;SDS011;3254;47.372;8.512;2022-10-17T15:53:46;11.60;;;4.13;;
6442;SDS011;3254;47.372;8.512;2022-10-17T15:56:25;10.93;;;4.40;;
6442;SDS011;3254;47.372;8.512;2022-10-17T15:58:53;6.80;;;4.00;;
6442;SDS011;3254;47.372;8.512;2022-10-17T16:01:26;13.83;;;4.17;;
6442;SDS011;3254;47.372;8.512;2022-10-17T16:03:54;3.80;;;3.50;;
6442;SDS011;3254;47.372;8.512;2022-10-17T16:06:20;8.60;;;4.40;;
6442;SDS011;3254;47.372;8.512;2022-10-17T16:08:47;8.30;;;4.60;;
6442;SDS011;3254;47.372;8.512;2022-10-17T16:13:49;7.43;;;4.43;;
6442;SDS011;3254;47.372;8.512;2022-10-17T16:16:16;6.30;;;5.17;;
6442;SDS011;3254;47.372;8.512;2022-10-17T16:18:42;16.20;;;4.60;;
6442;SDS011;3254;47.372;8.512;2022-10-17T16:21:11;12.23;;;4.47;;
6442;SDS011;3254;47.372;8.512;2022-10-17T16:23:38;9.73;;;3.83;;
6442;SDS011;3254;47.372;8.512;2022-10-17T16:26:04;5.37;;;4.27;;
6442;SDS011;3254;47.372;8.512;2022-10-17T16:28:31;10.97;;;5.00;;
6442;SDS011;3254;47.372;8.512;2022-10-17T16:30:57;6.80;;;4.63;;
6442;SDS011;3254;47.372;8.512;2022-10-17T16:33:23;7.57;;;4.87;;
6442;SDS011;3254;47.372;8.512;2022-10-17T16:35:48;5.90;;;4.63;;
6442;SDS011;3254;47.372;8.512;2022-10-17T16:38:14;11.60;;;5.10;;
6442;SDS011;3254;47.372;8.512;2022-10-17T16:40:40;5.33;;;4.83;;
6442;SDS011;3254;47.372;8.512;2022-10-17T16:43:06;7.67;;;4.80;;
6442;SDS011;3254;47.372;8.512;2022-10-17T16:45:34;11.63;;;5.30;;
6442;SDS011;3254;47.372;8.512;2022-10-17T16:48:00;9.37;;;4.87;;
6442;SDS011;3254;47.372;8.512;2022-10-17T16:50:27;7.03;;;5.80;;
6442;SDS011;3254;47.372;8.512;2022-10-17T16:52:55;11.17;;;5.23;;
6442;SDS011;3254;47.372;8.512;2022-10-17T16:55:20;7.50;;;6.57;;
6442;SDS011;3254;47.372;8.512;2022-10-17T16:57:46;17.70;;;6.83;;
6442;SDS011;3254;47.372;8.512;2022-10-17T17:00:13;11.27;;;5.37;;
6442;SDS011;3254;47.372;8.512;2022-10-17T17:02:39;7.57;;;5.37;;
6442;SDS011;3254;47.372;8.512;2022-10-17T17:05:04;4.97;;;4.53;;
6442;SDS011;3254;47.372;8.512;2022-10-17T17:07:31;19.33;;;5.50;;
6442;SDS011;3254;47.372;8.512;2022-10-17T17:09:57;10.60;;;5.80;;
6442;SDS011;3254;47.372;8.512;2022-10-17T17:12:23;16.73;;;6.10;;
6442;SDS011;3254;47.372;8.512;2022-10-17T17:14:48;7.67;;;5.73;;
6442;SDS011;3254;47.372;8.512;2022-10-17T17:17:14;16.17;;;7.33;;
6442;SDS011;3254;47.372;8.512;2022-10-17T17:19:39;12.37;;;7.10;;
6442;SDS011;3254;47.372;8.512;2022-10-17T17:22:05;24.70;;;7.03;;
6442;SDS011;3254;47.372;8.512;2022-10-17T17:24:31;16.93;;;6.83;;
6442;SDS011;3254;47.372;8.512;2022-10-17T17:26:56;10.77;;;6.77;;
6442;SDS011;3254;47.372;8.512;2022-10-17T17:29:22;15.30;;;6.73;;
6442;SDS011;3254;47.372;8.512;2022-10-17T17:31:49;9.43;;;6.37;;